sensor_id;sensor_type;location;lat;lon;timestamp;pressure;altitude;pressure_sealevel;temperature;humidity
63306;BME280;50735;52.060;1.248;2023-12-20T00:00:09;101595.52;;;1.57;69.36
63306;BME280;50735;52.060;1.248;2023-12-20T00:02:41;101590.70;;;1.44;68.88
63306;BME280;50735;52.060;1.248;2023-12-20T00:05:13;101596.71;;;1.65;68.95
63306;BME280;50735;52.060;1.248;2023-12-20T00:07:45;101602.06;;;1.59;68.98
63306;BME280;50735;52.060;1.248;2023-12-20T00:10:17;101598.65;;;1.57;68.95
63306;BME280;50735;52.060;1.248;2023-12-20T00:12:49;101595.92;;;1.59;69.21
63306;BME280;50735;52.060;1.248;2023-12-20T00:15:21;101607.39;;;1.48;69.26
63306;BME280;50735;52.060;1.248;2023-12-20T00:17:53;101611.03;;;1.11;68.90
63306;BME280;50735;52.060;1.248;2023-12-20T00:20:25;101613.92;;;1.53;69.09
63306;BME280;50735;52.060;1.248;2023-12-20T00:22:58;101611.44;;;1.21;69.24
63306;BME280;50735;52.060;1.248;2023-12-20T00:25:29;101610.46;;;1.32;69.18
63306;BME280;50735;52.060;1.248;2023-12-20T00:28:01;101607.10;;;1.72;68.79
63306;BME280;50735;52.060;1.248;2023-12-20T00:30:33;101605.63;;;1.67;68.52
63306;BME280;50735;52.060;1.248;2023-12-20T00:33:05;101606.68;;;1.43;68.92
63306;BME280;50735;52.060;1.248;2023-12-20T00:35:37;101603.52;;;1.41;69.11
63306;BME280;50735;52.060;1.248;2023-12-20T00:38:09;101605.35;;;1.64;68.97
63306;BME280;50735;52.060;1.248;2023-12-20T00:40:41;101600.76;;;1.47;68.91
63306;BME280;50735;52.060;1.248;2023-12-20T00:43:13;101602.87;;;1.45;69.02
63306;BME280;50735;52.060;1.248;2023-12-20T00:45:45;101601.39;;;1.22;68.86
63306;BME280;50735;52.060;1.248;2023-12-20T00:48:17;101605.14;;;1.24;69.03
63306;BME280;50735;52.060;1.248;2023-12-20T00:50:49;101611.28;;;1.65;68.94
63306;BME280;50735;52.060;1.248;2023-12-20T00:53:21;101600.72;;;1.45;69.32
63306;BME280;50735;52.060;1.248;2023-12-20T00:55:53;101603.32;;;1.48;69.43
63306;BME280;50735;52.060;1.248;2023-12-20T00:58:25;101603.11;;;1.53;69.49
63306;BME280;50735;52.060;1.248;2023-12-20T01:00:57;101598.69;;;1.42;69.92
63306;BME280;50735;52.060;1.248;2023-12-20T01:03:29;101597.18;;;1.20;70.18
63306;BME280;50735;52.060;1.248;2023-12-20T01:06:01;101597.13;;;1.35;70.35
63306;BME280;50735;52.060;1.248;2023-12-20T01:08:32;101602.40;;;1.25;70.45
63306;BME280;50735;52.060;1.248;2023-12-20T01:11:05;101591.08;;;1.50;70.40
63306;BME280;50735;52.060;1.248;2023-12-20T01:13:37;101592.02;;;1.34;70.40
63306;BME280;50735;52.060;1.248;2023-12-20T01:16:10;101588.05;;;1.58;70.20
63306;BME280;50735;52.060;1.248;2023-12-20T01:18:42;101589.31;;;1.23;70.14
63306;BME280;50735;52.060;1.248;2023-12-20T01:21:14;101584.57;;;1.38;70.51
63306;BME280;50735;52.060;1.248;2023-12-20T01:23:46;101588.26;;;1.50;70.10
63306;BME280;50735;52.060;1.248;2023-12-20T01:26:18;101589.69;;;1.38;69.71
63306;BME280;50735;52.060;1.248;2023-12-20T01:28:50;101585.70;;;1.48;70.01
63306;BME280;50735;52.060;1.248;2023-12-20T01:31:22;101589.77;;;1.35;70.31
63306;BME280;50735;52.060;1.248;2023-12-20T01:33:53;101585.70;;;1.33;70.04
63306;BME280;50735;52.060;1.248;2023-12-20T01:36:25;101585.35;;;1.59;69.37
63306;BME280;50735;52.060;1.248;2023-12-20T01:38:57;101581.68;;;1.56;69.29
63306;BME280;50735;52.060;1.248;2023-12-20T01:41:29;101576.48;;;1.85;68.87
63306;BME280;50735;52.060;1.248;2023-12-20T01:44:01;101579.48;;;1.75;68.70
63306;BME280;50735;52.060;1.248;2023-12-20T01:46:33;101571.35;;;1.77;68.24
63306;BME280;50735;52.060;1.248;2023-12-20T01:49:05;101568.61;;;1.80;68.13
63306;BME280;50735;52.060;1.248;2023-12-20T01:51:37;101571.87;;;1.71;68.26
63306;BME280;50735;52.060;1.248;2023-12-20T01:54:10;101568.93;;;1.63;68.69
63306;BME280;50735;52.060;1.248;2023-12-20T01:56:42;101574.51;;;1.60;68.39
63306;BME280;50735;52.060;1.248;2023-12-20T01:59:14;101574.22;;;1.75;68.46
63306;BME280;50735;52.060;1.248;2023-12-20T02:01:46;101574.64;;;1.80;68.14
63306;BME280;50735;52.060;1.248;2023-12-20T02:04:18;101575.20;;;1.76;68.26
63306;BME280;50735;52.060;1.248;2023-12-20T02:06:52;101573.29;;;1.40;68.07
63306;BME280;50735;52.060;1.248;2023-12-20T02:09:24;101576.92;;;1.63;68.04
63306;BME280;50735;52.060;1.248;2023-12-20T02:11:55;101571.25;;;1.89;67.73
63306;BME280;50735;52.060;1.248;2023-12-20T02:14:27;101569.61;;;1.85;67.67
63306;BME280;50735;52.060;1.248;2023-12-20T02:16:59;101571.34;;;1.69;68.00
63306;BME280;50735;52.060;1.248;2023-12-20T02:19:32;101570.78;;;1.65;67.85
63306;BME280;50735;52.060;1.248;2023-12-20T02:22:07;101569.89;;;1.44;67.91
63306;BME280;50735;52.060;1.248;2023-12-20T02:24:38;101574.13;;;1.49;68.18
63306;BME280;50735;52.060;1.248;2023-12-20T02:27:10;101568.15;;;1.75;68.03
63306;BME280;50735;52.060;1.248;2023-12-20T02:29:43;101569.50;;;1.44;68.21
63306;BME280;50735;52.060;1.248;2023-12-20T02:32:15;101562.55;;;1.11;69.00
63306;BME280;50735;52.060;1.248;2023-12-20T02:34:48;101568.62;;;1.51;68.34
63306;BME280;50735;52.060;1.248;2023-12-20T02:37:20;101577.62;;;1.52;68.36
63306;BME280;50735;52.060;1.248;2023-12-20T02:39:52;101570.56;;;1.06;68.11
63306;BME280;50735;52.060;1.248;2023-12-20T02:42:24;101573.05;;;1.58;67.65
63306;BME280;50735;52.060;1.248;2023-12-20T02:44:56;101578.90;;;1.55;67.74
63306;BME280;50735;52.060;1.248;2023-12-20T02:47:28;101561.52;;;1.48;67.62
63306;BME280;50735;52.060;1.248;2023-12-20T02:50:00;101560.56;;;1.60;68.27
63306;BME280;50735;52.060;1.248;2023-12-20T02:52:31;101554.72;;;1.65;67.62
63306;BME280;50735;52.060;1.248;2023-12-20T02:55:04;101556.29;;;1.63;67.60
63306;BME280;50735;52.060;1.248;2023-12-20T02:57:36;101553.27;;;1.64;67.52
63306;BME280;50735;52.060;1.248;2023-12-20T03:00:08;101548.44;;;1.61;67.38
63306;BME280;50735;52.060;1.248;2023-12-20T03:02:41;101539.36;;;1.61;67.54
63306;BME280;50735;52.060;1.248;2023-12-20T03:05:13;101541.18;;;1.23;67.88
63306;BME280;50735;52.060;1.248;2023-12-20T03:07:45;101544.98;;;1.57;67.91
63306;BME280;50735;52.060;1.248;2023-12-20T03:10:17;101540.90;;;1.75;67.46
63306;BME280;50735;52.060;1.248;2023-12-20T03:12:49;101549.31;;;1.80;67.05
63306;BME280;50735;52.060;1.248;2023-12-20T03:15:21;101548.32;;;1.52;67.58
63306;BME280;50735;52.060;1.248;2023-12-20T03:17:53;101543.01;;;1.58;67.81
63306;BME280;50735;52.060;1.248;2023-12-20T03:20:25;101540.66;;;1.58;68.02
63306;BME280;50735;52.060;1.248;2023-12-20T03:22:57;101543.55;;;1.61;67.80
63306;BME280;50735;52.060;1.248;2023-12-20T03:25:29;101550.91;;;1.61;67.83
63306;BME280;50735;52.060;1.248;2023-12-20T03:28:00;101548.43;;;1.53;68.13
63306;BME280;50735;52.060;1.248;2023-12-20T03:30:32;101550.95;;;1.54;67.87
63306;BME280;50735;52.060;1.248;2023-12-20T03:33:04;101545.82;;;1.55;67.91
63306;BME280;50735;52.060;1.248;2023-12-20T03:35:36;101538.68;;;1.60;67.62
63306;BME280;50735;52.060;1.248;2023-12-20T03:38:08;101540.51;;;1.78;67.52
63306;BME280;50735;52.060;1.248;2023-12-20T03:40:40;101547.82;;;1.59;67.87
63306;BME280;50735;52.060;1.248;2023-12-20T03:43:12;101549.50;;;1.46;68.39
63306;BME280;50735;52.060;1.248;2023-12-20T03:45:44;101546.99;;;1.67;67.95
63306;BME280;50735;52.060;1.248;2023-12-20T03:48:16;101539.59;;;1.86;67.48
63306;BME280;50735;52.060;1.248;2023-12-20T03:50:48;101542.89;;;1.66;67.41
63306;BME280;50735;52.060;1.248;2023-12-20T03:53:19;101540.87;;;1.91;67.23
63306;BME280;50735;52.060;1.248;2023-12-20T03:55:51;101550.04;;;1.96;67.28
63306;BME280;50735;52.060;1.248;2023-12-20T03:58:23;101547.03;;;1.98;67.29
63306;BME280;50735;52.060;1.248;2023-12-20T04:00:55;101539.81;;;1.93;67.13
63306;BME280;50735;52.060;1.248;2023-12-20T04:03:27;101545.69;;;1.53;67.09
63306;BME280;50735;52.060;1.248;2023-12-20T04:05:58;101540.64;;;1.74;67.50
63306;BME280;50735;52.060;1.248;2023-12-20T04:08:30;101543.80;;;1.68;67.35
63306;BME280;50735;52.060;1.248;2023-12-20T04:11:03;101549.74;;;1.92;67.27
63306;BME280;50735;52.060;1.248;2023-12-20T04:13:35;101551.50;;;2.05;66.85
63306;BME280;50735;52.060;1.248;2023-12-20T04:16:07;101539.41;;;1.89;67.19
63306;BME280;50735;52.060;1.248;2023-12-20T04:18:38;101541.20;;;1.68;68.09
63306;BME280;50735;52.060;1.248;2023-12-20T04:21:10;101541.58;;;1.82;67.63
63306;BME280;50735;52.060;1.248;2023-12-20T04:23:42;101529.62;;;1.59;68.10
63306;BME280;50735;52.060;1.248;2023-12-20T04:26:15;101526.43;;;1.69;67.98
63306;BME280;50735;52.060;1.248;2023-12-20T04:28:46;101526.79;;;1.69;67.81
63306;BME280;50735;52.060;1.248;2023-12-20T04:31:18;101525.40;;;1.81;67.68
63306;BME280;50735;52.060;1.248;2023-12-20T04:33:50;101527.50;;;1.72;67.58
63306;BME280;50735;52.060;1.248;2023-12-20T04:36:22;101529.42;;;2.02;67.37
63306;BME280;50735;52.060;1.248;2023-12-20T04:38:54;101535.23;;;1.97;67.62
63306;BME280;50735;52.060;1.248;2023-12-20T04:41:26;101529.79;;;1.93;67.17
63306;BME280;50735;52.060;1.248;2023-12-20T04:43:58;101529.26;;;2.00;67.07
63306;BME280;50735;52.060;1.248;2023-12-20T04:46:30;101526.09;;;2.20;66.85
63306;BME280;50735;52.060;1.248;2023-12-20T04:49:02;101525.23;;;1.70;67.39
63306;BME280;50735;52.060;1.248;2023-12-20T04:51:34;101532.06;;;1.76;67.30
63306;BME280;50735;52.060;1.248;2023-12-20T04:54:06;101532.98;;;2.07;66.66
63306;BME280;50735;52.060;1.248;2023-12-20T04:56:38;101533.69;;;1.71;67.20
63306;BME280;50735;52.060;1.248;2023-12-20T04:59:10;101544.46;;;1.97;67.05
63306;BME280;50735;52.060;1.248;2023-12-20T05:01:42;101544.21;;;1.95;67.19
63306;BME280;50735;52.060;1.248;2023-12-20T05:04:14;101547.67;;;2.18;66.81
63306;BME280;50735;52.060;1.248;2023-12-20T05:06:46;101540.20;;;2.00;67.48
63306;BME280;50735;52.060;1.248;2023-12-20T05:09:18;101541.76;;;2.02;67.28
63306;BME280;50735;52.060;1.248;2023-12-20T05:11:50;101550.26;;;1.65;67.35
63306;BME280;50735;52.060;1.248;2023-12-20T05:14:22;101551.89;;;2.04;67.81
63306;BME280;50735;52.060;1.248;2023-12-20T05:16:54;101552.19;;;2.04;67.78
63306;BME280;50735;52.060;1.248;2023-12-20T05:19:26;101556.06;;;1.89;67.71
63306;BME280;50735;52.060;1.248;2023-12-20T05:21:58;101544.37;;;1.92;68.10
63306;BME280;50735;52.060;1.248;2023-12-20T05:24:29;101539.32;;;1.81;68.26
63306;BME280;50735;52.060;1.248;2023-12-20T05:27:01;101533.91;;;1.78;68.05
63306;BME280;50735;52.060;1.248;2023-12-20T05:29:33;101528.85;;;2.01;68.02
63306;BME280;50735;52.060;1.248;2023-12-20T05:32:05;101524.94;;;2.14;68.19
63306;BME280;50735;52.060;1.248;2023-12-20T05:34:37;101517.88;;;1.76;68.27
63306;BME280;50735;52.060;1.248;2023-12-20T05:37:09;101520.36;;;2.05;68.28
63306;BME280;50735;52.060;1.248;2023-12-20T05:39:40;101504.15;;;2.23;68.16
63306;BME280;50735;52.060;1.248;2023-12-20T05:42:12;101498.42;;;2.29;67.97
63306;BME280;50735;52.060;1.248;2023-12-20T05:44:44;101501.04;;;1.93;67.96
63306;BME280;50735;52.060;1.248;2023-12-20T05:47:16;101491.85;;;2.06;67.71
63306;BME280;50735;52.060;1.248;2023-12-20T05:49:48;101495.20;;;2.29;67.76
63306;BME280;50735;52.060;1.248;2023-12-20T05:52:20;101492.99;;;1.86;68.44
63306;BME280;50735;52.060;1.248;2023-12-20T05:54:52;101486.28;;;2.07;68.42
63306;BME280;50735;52.060;1.248;2023-12-20T05:57:23;101477.64;;;2.36;68.08
63306;BME280;50735;52.060;1.248;2023-12-20T05:59:56;101475.58;;;2.55;67.49
63306;BME280;50735;52.060;1.248;2023-12-20T06:02:27;101481.72;;;2.12;67.80
63306;BME280;50735;52.060;1.248;2023-12-20T06:04:59;101481.71;;;2.16;67.02
63306;BME280;50735;52.060;1.248;2023-12-20T06:07:31;101472.23;;;2.22;67.08
63306;BME280;50735;52.060;1.248;2023-12-20T06:10:03;101490.52;;;2.52;67.77
63306;BME280;50735;52.060;1.248;2023-12-20T06:12:36;101490.76;;;2.70;66.94
63306;BME280;50735;52.060;1.248;2023-12-20T06:15:08;101489.43;;;2.33;67.00
63306;BME280;50735;52.060;1.248;2023-12-20T06:17:40;101493.55;;;2.42;67.43
63306;BME280;50735;52.060;1.248;2023-12-20T06:20:12;101498.45;;;2.38;67.04
63306;BME280;50735;52.060;1.248;2023-12-20T06:22:44;101502.20;;;2.16;67.82
63306;BME280;50735;52.060;1.248;2023-12-20T06:25:16;101503.33;;;2.19;67.84
63306;BME280;50735;52.060;1.248;2023-12-20T06:27:48;101505.47;;;2.19;67.94
63306;BME280;50735;52.060;1.248;2023-12-20T06:30:19;101499.73;;;2.27;67.78
63306;BME280;50735;52.060;1.248;2023-12-20T06:32:51;101502.50;;;2.13;68.29
63306;BME280;50735;52.060;1.248;2023-12-20T06:35:23;101508.60;;;2.04;68.47
63306;BME280;50735;52.060;1.248;2023-12-20T06:37:55;101510.23;;;2.32;68.78
63306;BME280;50735;52.060;1.248;2023-12-20T06:40:27;101509.66;;;1.83;69.22
63306;BME280;50735;52.060;1.248;2023-12-20T06:42:59;101516.83;;;2.13;69.29
63306;BME280;50735;52.060;1.248;2023-12-20T06:45:31;101504.33;;;2.01;68.76
63306;BME280;50735;52.060;1.248;2023-12-20T06:48:03;101498.66;;;2.11;68.75
63306;BME280;50735;52.060;1.248;2023-12-20T06:50:35;101498.17;;;2.21;69.13
63306;BME280;50735;52.060;1.248;2023-12-20T06:53:07;101500.60;;;2.32;69.05
63306;BME280;50735;52.060;1.248;2023-12-20T06:55:39;101501.01;;;2.16;68.80
63306;BME280;50735;52.060;1.248;2023-12-20T06:58:11;101499.84;;;2.37;68.34
63306;BME280;50735;52.060;1.248;2023-12-20T07:00:43;101504.72;;;2.39;68.06
63306;BME280;50735;52.060;1.248;2023-12-20T07:03:15;101509.50;;;2.25;68.33
63306;BME280;50735;52.060;1.248;2023-12-20T07:05:47;101494.63;;;2.20;68.54
63306;BME280;50735;52.060;1.248;2023-12-20T07:08:18;101500.51;;;2.47;67.88
63306;BME280;50735;52.060;1.248;2023-12-20T07:10:50;101513.96;;;2.75;67.80
63306;BME280;50735;52.060;1.248;2023-12-20T07:13:22;101506.43;;;2.44;67.78
63306;BME280;50735;52.060;1.248;2023-12-20T07:15:54;101510.27;;;2.42;67.90
63306;BME280;50735;52.060;1.248;2023-12-20T07:18:26;101513.23;;;2.42;68.11
63306;BME280;50735;52.060;1.248;2023-12-20T07:20:58;101507.75;;;2.47;68.27
63306;BME280;50735;52.060;1.248;2023-12-20T07:23:30;101508.02;;;2.61;67.92
63306;BME280;50735;52.060;1.248;2023-12-20T07:26:02;101502.84;;;2.64;67.93
63306;BME280;50735;52.060;1.248;2023-12-20T07:28:34;101487.09;;;2.43;68.21
63306;BME280;50735;52.060;1.248;2023-12-20T07:31:05;101483.77;;;2.72;67.94
63306;BME280;50735;52.060;1.248;2023-12-20T07:33:37;101474.59;;;2.88;68.43
63306;BME280;50735;52.060;1.248;2023-12-20T07:36:09;101469.97;;;2.73;68.06
63306;BME280;50735;52.060;1.248;2023-12-20T07:38:41;101471.04;;;2.76;68.28
63306;BME280;50735;52.060;1.248;2023-12-20T07:41:13;101477.32;;;2.80;68.26
63306;BME280;50735;52.060;1.248;2023-12-20T07:43:45;101483.30;;;2.75;68.22
63306;BME280;50735;52.060;1.248;2023-12-20T07:46:17;101496.57;;;2.47;69.02
63306;BME280;50735;52.060;1.248;2023-12-20T07:48:49;101500.81;;;2.73;68.74
63306;BME280;50735;52.060;1.248;2023-12-20T07:51:20;101494.79;;;2.71;68.70
63306;BME280;50735;52.060;1.248;2023-12-20T07:53:52;101495.02;;;2.87;68.07
63306;BME280;50735;52.060;1.248;2023-12-20T07:56:24;101497.35;;;2.73;68.82
63306;BME280;50735;52.060;1.248;2023-12-20T07:58:56;101499.82;;;2.73;68.76
63306;BME280;50735;52.060;1.248;2023-12-20T08:01:28;101500.95;;;2.73;68.63
63306;BME280;50735;52.060;1.248;2023-12-20T08:04:00;101501.49;;;2.98;68.23
63306;BME280;50735;52.060;1.248;2023-12-20T08:06:31;101510.17;;;2.86;68.56
63306;BME280;50735;52.060;1.248;2023-12-20T08:09:03;101504.99;;;3.18;72.37
63306;BME280;50735;52.060;1.248;2023-12-20T08:11:35;101503.59;;;3.02;68.59
63306;BME280;50735;52.060;1.248;2023-12-20T08:14:07;101505.89;;;2.99;68.58
63306;BME280;50735;52.060;1.248;2023-12-20T08:16:39;101503.21;;;2.86;68.89
63306;BME280;50735;52.060;1.248;2023-12-20T08:19:11;101514.00;;;2.60;69.54
63306;BME280;50735;52.060;1.248;2023-12-20T08:21:43;101519.28;;;2.78;69.10
63306;BME280;50735;52.060;1.248;2023-12-20T08:24:15;101526.12;;;2.74;69.23
63306;BME280;50735;52.060;1.248;2023-12-20T08:26:46;101517.30;;;2.67;69.64
63306;BME280;50735;52.060;1.248;2023-12-20T08:29:18;101522.66;;;2.73;69.56
63306;BME280;50735;52.060;1.248;2023-12-20T08:31:52;101525.75;;;2.46;69.90
63306;BME280;50735;52.060;1.248;2023-12-20T08:34:24;101515.06;;;2.73;69.55
63306;BME280;50735;52.060;1.248;2023-12-20T08:36:56;101515.05;;;2.63;69.91
63306;BME280;50735;52.060;1.248;2023-12-20T08:39:27;101514.88;;;2.80;69.57
63306;BME280;50735;52.060;1.248;2023-12-20T08:41:59;101510.96;;;2.70;69.76
63306;BME280;50735;52.060;1.248;2023-12-20T08:44:31;101519.92;;;2.65;69.68
63306;BME280;50735;52.060;1.248;2023-12-20T08:47:03;101524.51;;;2.78;69.94
63306;BME280;50735;52.060;1.248;2023-12-20T08:49:35;101513.28;;;2.94;69.55
63306;BME280;50735;52.060;1.248;2023-12-20T08:52:07;101510.07;;;3.00;69.40
63306;BME280;50735;52.060;1.248;2023-12-20T08:54:39;101509.24;;;3.27;68.94
63306;BME280;50735;52.060;1.248;2023-12-20T08:57:12;101505.68;;;3.21;68.53
63306;BME280;50735;52.060;1.248;2023-12-20T08:59:44;101515.48;;;3.26;68.38
63306;BME280;50735;52.060;1.248;2023-12-20T09:02:16;101517.24;;;3.14;68.84
63306;BME280;50735;52.060;1.248;2023-12-20T09:04:47;101533.24;;;3.10;69.33
63306;BME280;50735;52.060;1.248;2023-12-20T09:07:21;101525.41;;;3.13;69.13
63306;BME280;50735;52.060;1.248;2023-12-20T09:09:53;101521.71;;;3.18;68.30
63306;BME280;50735;52.060;1.248;2023-12-20T09:12:25;101521.57;;;3.46;67.95
63306;BME280;50735;52.060;1.248;2023-12-20T09:14:57;101520.82;;;3.15;68.22
63306;BME280;50735;52.060;1.248;2023-12-20T09:17:29;101519.22;;;3.38;68.75
63306;BME280;50735;52.060;1.248;2023-12-20T09:20:01;101509.78;;;3.24;67.60
63306;BME280;50735;52.060;1.248;2023-12-20T09:22:32;101514.22;;;3.23;68.59
63306;BME280;50735;52.060;1.248;2023-12-20T09:25:05;101494.32;;;3.66;67.51
63306;BME280;50735;52.060;1.248;2023-12-20T09:27:37;101506.93;;;3.69;66.70
63306;BME280;50735;52.060;1.248;2023-12-20T09:30:09;101502.36;;;3.61;66.97
63306;BME280;50735;52.060;1.248;2023-12-20T09:32:41;101498.63;;;3.80;66.60
63306;BME280;50735;52.060;1.248;2023-12-20T09:35:13;101493.99;;;3.65;66.72
63306;BME280;50735;52.060;1.248;2023-12-20T09:37:45;101485.28;;;3.69;66.66
63306;BME280;50735;52.060;1.248;2023-12-20T09:40:18;101483.73;;;3.57;66.58
63306;BME280;50735;52.060;1.248;2023-12-20T09:42:56;101478.34;;;3.85;66.29
63306;BME280;50735;52.060;1.248;2023-12-20T09:45:30;101484.30;;;3.89;67.01
63306;BME280;50735;52.060;1.248;2023-12-20T09:48:03;101489.37;;;3.66;66.92
63306;BME280;50735;52.060;1.248;2023-12-20T09:50:35;101494.75;;;3.87;67.69
63306;BME280;50735;52.060;1.248;2023-12-20T09:53:09;101491.28;;;3.71;67.81
63306;BME280;50735;52.060;1.248;2023-12-20T09:55:42;101490.66;;;3.50;68.48
63306;BME280;50735;52.060;1.248;2023-12-20T09:58:14;101501.44;;;3.41;68.92
63306;BME280;50735;52.060;1.248;2023-12-20T10:00:46;101504.80;;;3.40;68.84
63306;BME280;50735;52.060;1.248;2023-12-20T10:03:23;101504.44;;;3.58;68.96
63306;BME280;50735;52.060;1.248;2023-12-20T10:05:56;101489.76;;;3.63;68.53
63306;BME280;50735;52.060;1.248;2023-12-20T10:08:28;101488.25;;;3.42;69.09
63306;BME280;50735;52.060;1.248;2023-12-20T10:11:00;101487.40;;;3.48;68.80
63306;BME280;50735;52.060;1.248;2023-12-20T10:13:33;101482.57;;;3.49;69.01
63306;BME280;50735;52.060;1.248;2023-12-20T10:16:06;101488.70;;;3.46;68.86
63306;BME280;50735;52.060;1.248;2023-12-20T10:18:37;101484.01;;;3.79;68.29
63306;BME280;50735;52.060;1.248;2023-12-20T10:21:09;101485.77;;;3.73;68.46
63306;BME280;50735;52.060;1.248;2023-12-20T10:23:41;101479.17;;;3.90;68.10
63306;BME280;50735;52.060;1.248;2023-12-20T10:26:19;101479.68;;;3.75;68.36
63306;BME280;50735;52.060;1.248;2023-12-20T10:28:53;101481.89;;;3.98;67.68
63306;BME280;50735;52.060;1.248;2023-12-20T10:31:26;101478.83;;;3.81;67.82
63306;BME280;50735;52.060;1.248;2023-12-20T10:34:01;101470.13;;;4.17;66.87
63306;BME280;50735;52.060;1.248;2023-12-20T10:36:34;101462.29;;;4.04;66.62
63306;BME280;50735;52.060;1.248;2023-12-20T10:39:07;101463.15;;;4.14;66.42
63306;BME280;50735;52.060;1.248;2023-12-20T10:41:42;101458.85;;;4.17;66.50
63306;BME280;50735;52.060;1.248;2023-12-20T10:44:15;101462.26;;;4.16;66.38
63306;BME280;50735;52.060;1.248;2023-12-20T10:46:47;101470.97;;;4.37;66.36
63306;BME280;50735;52.060;1.248;2023-12-20T10:49:19;101462.58;;;4.34;67.04
63306;BME280;50735;52.060;1.248;2023-12-20T10:51:54;101457.00;;;4.27;67.37
63306;BME280;50735;52.060;1.248;2023-12-20T10:54:26;101445.18;;;3.93;67.43
63306;BME280;50735;52.060;1.248;2023-12-20T10:56:58;101442.00;;;4.11;69.25
63306;BME280;50735;52.060;1.248;2023-12-20T10:59:33;101447.87;;;4.22;67.30
63306;BME280;50735;52.060;1.248;2023-12-20T11:02:05;101433.68;;;4.40;67.20
63306;BME280;50735;52.060;1.248;2023-12-20T11:04:44;101424.75;;;4.48;66.79
63306;BME280;50735;52.060;1.248;2023-12-20T11:07:23;101418.57;;;4.39;66.25
63306;BME280;50735;52.060;1.248;2023-12-20T11:10:00;101416.77;;;4.41;66.13
63306;BME280;50735;52.060;1.248;2023-12-20T11:12:43;101406.96;;;4.36;66.82
63306;BME280;50735;52.060;1.248;2023-12-20T11:15:18;101420.14;;;4.11;67.06
63306;BME280;50735;52.060;1.248;2023-12-20T11:17:55;101412.68;;;4.15;67.28
63306;BME280;50735;52.060;1.248;2023-12-20T11:20:36;101413.93;;;4.51;67.63
63306;BME280;50735;52.060;1.248;2023-12-20T11:23:09;101419.01;;;4.23;67.34
63306;BME280;50735;52.060;1.248;2023-12-20T11:25:48;101410.45;;;4.71;67.08
63306;BME280;50735;52.060;1.248;2023-12-20T11:28:22;101406.93;;;4.43;67.08
63306;BME280;50735;52.060;1.248;2023-12-20T11:30:55;101406.88;;;4.49;67.10
63306;BME280;50735;52.060;1.248;2023-12-20T11:33:30;101394.80;;;4.65;66.51
63306;BME280;50735;52.060;1.248;2023-12-20T11:36:03;101381.02;;;4.86;66.56
63306;BME280;50735;52.060;1.248;2023-12-20T11:38:59;101376.44;;;5.02;65.40
63306;BME280;50735;52.060;1.248;2023-12-20T11:41:32;101370.99;;;5.37;65.19
63306;BME280;50735;52.060;1.248;2023-12-20T11:44:04;101367.78;;;4.90;65.37
63306;BME280;50735;52.060;1.248;2023-12-20T11:46:36;101363.36;;;5.34;65.38
63306;BME280;50735;52.060;1.248;2023-12-20T11:49:08;101351.69;;;5.63;64.08
63306;BME280;50735;52.060;1.248;2023-12-20T11:51:41;101348.30;;;6.03;62.76
63306;BME280;50735;52.060;1.248;2023-12-20T11:54:15;101341.39;;;6.26;62.67
63306;BME280;50735;52.060;1.248;2023-12-20T11:56:47;101326.17;;;6.50;61.46
63306;BME280;50735;52.060;1.248;2023-12-20T11:59:20;101333.21;;;6.61;60.70
63306;BME280;50735;52.060;1.248;2023-12-20T12:01:52;101327.65;;;6.76;60.50
63306;BME280;50735;52.060;1.248;2023-12-20T12:04:24;101327.33;;;6.51;61.30
63306;BME280;50735;52.060;1.248;2023-12-20T12:06:55;101332.95;;;6.13;61.37
63306;BME280;50735;52.060;1.248;2023-12-20T12:09:27;101322.42;;;5.83;61.78
63306;BME280;50735;52.060;1.248;2023-12-20T12:11:59;101315.54;;;6.08;61.71
63306;BME280;50735;52.060;1.248;2023-12-20T12:14:31;101313.26;;;5.72;62.74
63306;BME280;50735;52.060;1.248;2023-12-20T12:17:04;101308.04;;;5.41;63.54
63306;BME280;50735;52.060;1.248;2023-12-20T12:19:36;101302.66;;;5.87;63.40
63306;BME280;50735;52.060;1.248;2023-12-20T12:22:09;101309.34;;;5.67;63.19
63306;BME280;50735;52.060;1.248;2023-12-20T12:24:43;101304.58;;;5.72;62.80
63306;BME280;50735;52.060;1.248;2023-12-20T12:27:15;101300.96;;;5.74;63.16
63306;BME280;50735;52.060;1.248;2023-12-20T12:30:01;101299.63;;;5.70;63.42
63306;BME280;50735;52.060;1.248;2023-12-20T12:32:33;101289.22;;;5.93;63.93
63306;BME280;50735;52.060;1.248;2023-12-20T12:35:05;101287.06;;;5.84;63.81
63306;BME280;50735;52.060;1.248;2023-12-20T12:37:39;101294.29;;;5.48;64.28
63306;BME280;50735;52.060;1.248;2023-12-20T12:40:12;101289.74;;;5.63;63.95
63306;BME280;50735;52.060;1.248;2023-12-20T12:42:45;101288.61;;;5.46;64.63
63306;BME280;50735;52.060;1.248;2023-12-20T12:45:17;101294.62;;;5.71;63.91
63306;BME280;50735;52.060;1.248;2023-12-20T12:47:49;101283.73;;;5.48;64.78
63306;BME280;50735;52.060;1.248;2023-12-20T12:50:20;101273.19;;;5.45;64.93
63306;BME280;50735;52.060;1.248;2023-12-20T12:52:52;101274.01;;;5.48;64.92
63306;BME280;50735;52.060;1.248;2023-12-20T12:55:24;101249.19;;;5.46;65.36
63306;BME280;50735;52.060;1.248;2023-12-20T12:57:56;101234.85;;;5.56;65.45
63306;BME280;50735;52.060;1.248;2023-12-20T13:00:27;101229.56;;;5.89;65.02
63306;BME280;50735;52.060;1.248;2023-12-20T13:02:59;101223.68;;;5.61;65.14
63306;BME280;50735;52.060;1.248;2023-12-20T13:05:31;101215.82;;;5.55;65.15
63306;BME280;50735;52.060;1.248;2023-12-20T13:08:03;101198.55;;;5.52;64.80
63306;BME280;50735;52.060;1.248;2023-12-20T13:10:36;101190.82;;;5.56;65.00
63306;BME280;50735;52.060;1.248;2023-12-20T13:13:07;101197.03;;;5.50;65.34
63306;BME280;50735;52.060;1.248;2023-12-20T13:15:39;101193.78;;;5.41;65.62
63306;BME280;50735;52.060;1.248;2023-12-20T13:18:11;101204.27;;;5.76;65.42
63306;BME280;50735;52.060;1.248;2023-12-20T13:20:43;101202.72;;;5.90;65.24
63306;BME280;50735;52.060;1.248;2023-12-20T13:23:15;101205.09;;;5.63;64.95
63306;BME280;50735;52.060;1.248;2023-12-20T13:25:47;101204.14;;;5.62;65.27